Terminal Aerodrome Forecast
Issued by NWS Dodge City, KS

Home | Current Version | Previous Version | Graphics & Text | Print | Product List | Glossary Off
Versions: 1 2 3 4 5 6 7 8 9 10 11 12 13 14 15 16

000
FTUS43 KDDC 181723
TAFDDC
TAF
KDDC 181723Z 1818/1918 VRB04KT P6SM FEW250
     FM190700 16012KT 3SM BR BKN090
     FM190900 16012KT 1SM BR BKN008
     FM191400 16011KT 1/2SM FG BKN003
     FM191600 16013KT 4SM BR BKN008
     FM191700 17014KT 6SM BR BKN015=

USA.gov is the U.S. government's official web portal to all federal, state and local government web resources and services.